Time;durP1;ratioP1;P1;durP2;ratioP2;P2;SDS_P1;SDS_P2;PMS_P1;PMS_P2;Temp;Humidity;BMP_temperature;BMP_pressure;BME280_temperature;BME280_humidity;BME280_pressure;Samples;Min_cycle;Max_cycle;Signal;HPM_P1;HPM_P2
2022/04/17 00:01:48;;;;;;;;;;;;;;;;;;4946590;28;20551;-66
2022/04/17 00:04:15;;;;;;;;;;;;;;;;;;4943633;28;19918;-67
2022/04/17 00:06:41;;;;;;;;;;;;;;;;;;4945498;28;20335;-66
2022/04/17 00:09:07;;;;;;;;;;;;;;;;;;4945728;28;20388;-67
2022/04/17 00:11:33;;;;;;;;;;;;;;;;;;4946014;28;19918;-67
2022/04/17 00:13:59;;;;;;;;;;;;;;;;;;4949664;28;20008;-67
2022/04/17 00:16:25;;;;;;;;;;;;;;;;;;4933596;28;19977;-67
2022/04/17 00:18:52;;;;;;;;;;;;;;;;;;4942861;28;20004;-67
2022/04/17 00:21:18;;;;;;;;;;;;;;;;;;4943862;28;19914;-67
2022/04/17 00:23:44;;;;;;;;;;;;;;;;;;4952152;28;20324;-71
2022/04/17 00:26:10;;;;;;;;;;;;;;;;;;4937217;28;19930;-73
2022/04/17 00:28:36;;;;;;;;;;;;;;;;;;4954305;28;19914;-73
2022/04/17 00:31:02;;;;;;;;;;;;;;;;;;4946189;28;19918;-73
2022/04/17 00:33:28;;;;;;;;;;;;;;;;;;4950568;28;20490;-73
2022/04/17 00:35:54;;;;;;;;;;;;;;;;;;4948624;28;19914;-72
2022/04/17 00:38:20;;;;;;;;;;;;;;;;;;4939241;28;20340;-73
2022/04/17 00:40:46;;;;;;;;;;;;;;;;;;4944704;28;20037;-72
2022/04/17 00:43:12;;;;;;;;;;;;;;;;;;4943444;28;20272;-72
2022/04/17 00:45:38;;;;;;;;;;;;;;;;;;4942316;28;19921;-72
2022/04/17 00:48:04;;;;;;;;;;;;;;;;;;4943336;28;19913;-72
2022/04/17 00:50:30;;;;;;;;;;;;;;;;;;4948550;28;19936;-71
2022/04/17 00:52:56;;;;;;;;;;;;;;;;;;4948362;28;19914;-72
2022/04/17 00:55:22;;;;;;;;;;;;;;;;;;4949197;28;20016;-71
2022/04/17 00:57:48;;;;;;;;;;;;;;;;;;4948333;28;20435;-72
2022/04/17 01:00:14;;;;;;;;;;;;;;;;;;4944807;28;20033;-72
2022/04/17 01:02:40;;;;;;;;;;;;;;;;;;4947698;28;20332;-72
2022/04/17 01:05:06;;;;;;;;;;;;;;;;;;4944958;28;20434;-72
2022/04/17 01:07:32;;;;;;;;;;;;;;;;;;4942988;28;19921;-72
2022/04/17 01:09:58;;;;;;;;;;;;;;;;;;4951406;28;19918;-72
2022/04/17 01:12:24;;;;;;;;;;;;;;;;;;4931471;28;20315;-71
2022/04/17 01:14:51;;;;;;;;;;;;;;;;;;4952372;28;19921;-72
2022/04/17 01:17:17;;;;;;;;;;;;;;;;;;4946740;28;19915;-72
2022/04/17 01:19:43;;;;;;;;;;;;;;;;;;4949452;28;19921;-72
2022/04/17 01:22:10;;;;;;;;;;;;;;;;;;4945987;28;19914;-71
2022/04/17 01:27:21;;;;;;;;;;;;;;;;;;4946689;28;20599;-71
2022/04/17 01:29:47;;;;;;;;;;;;;;;;;;4950264;28;20199;-71
2022/04/17 01:32:13;;;;;;;;;;;;;;;;;;4946825;28;20294;-71
2022/04/17 01:34:39;;;;;;;;;;;;;;;;;;4949535;28;19920;-71
2022/04/17 01:37:05;;;;;;;;;;;;;;;;;;4939938;28;19914;-71
2022/04/17 01:39:33;;;;;;;;;;;;;;;;;;4934964;28;19924;-74
2022/04/17 01:41:59;;;;;;;;;;;;;;;;;;4952318;28;19921;-71
2022/04/17 01:44:27;;;;;;;;;;;;;;;;;;4955856;28;19922;-71
2022/04/17 01:46:53;;;;;;;;;;;;;;;;;;4948333;28;19914;-71
2022/04/17 01:49:19;;;;;;;;;;;;;;;;;;4950771;28;21704;-74
2022/04/17 01:51:45;;;;;;;;;;;;;;;;;;4956656;28;19921;-72
2022/04/17 01:54:11;;;;;;;;;;;;;;;;;;4941965;28;19958;-71
2022/04/17 01:56:37;;;;;;;;;;;;;;;;;;4955252;28;19918;-71
2022/04/17 01:59:04;;;;;;;;;;;;;;;;;;4950695;28;19918;-72
2022/04/17 02:01:30;;;;;;;;;;;;;;;;;;4948895;28;20021;-72
2022/04/17 02:03:56;;;;;;;;;;;;;;;;;;4945660;28;19914;-73
2022/04/17 02:06:22;;;;;;;;;;;;;;;;;;4946876;28;20649;-72
2022/04/17 02:08:48;;;;;;;;;;;;;;;;;;4946442;28;19918;-72
2022/04/17 02:11:14;;;;;;;;;;;;;;;;;;4946459;28;19921;-72
2022/04/17 02:13:40;;;;;;;;;;;;;;;;;;4951712;28;20194;-72
2022/04/17 02:16:06;;;;;;;;;;;;;;;;;;4945127;28;20383;-71
2022/04/17 02:18:32;;;;;;;;;;;;;;;;;;4948216;28;19968;-72
2022/04/17 02:20:59;;;;;;;;;;;;;;;;;;4949750;28;19965;-72
2022/04/17 02:23:25;;;;;;;;;;;;;;;;;;4946652;28;20303;-72
2022/04/17 02:25:51;;;;;;;;;;;;;;;;;;4946830;28;19922;-72
2022/04/17 02:28:17;;;;;;;;;;;;;;;;;;4946081;28;19922;-72
2022/04/17 02:30:43;;;;;;;;;;;;;;;;;;4941310;28;19993;-72
2022/04/17 02:33:08;;;;;;;;;;;;;;;;;;4937825;28;19914;-72
2022/04/17 02:35:34;;;;;;;;;;;;;;;;;;4946113;28;20475;-72
2022/04/17 02:38:00;;;;;;;;;;;;;;;;;;4943013;28;19918;-72
2022/04/17 02:40:26;;;;;;;;;;;;;;;;;;4949493;28;19997;-72
2022/04/17 02:42:55;;;;;;;;;;;;;;;;;;4946304;28;20361;-72
2022/04/17 02:45:21;;;;;;;;;;;;;;;;;;4940267;28;20306;-72
2022/04/17 02:47:50;;;;;;;;;;;;;;;;;;4947622;28;20407;-73
2022/04/17 02:50:17;;;;;;;;;;;;;;;;;;4945380;28;19988;-72
2022/04/17 02:52:43;;;;;;;;;;;;;;;;;;4946389;28;19920;-72
2022/04/17 02:55:09;;;;;;;;;;;;;;;;;;4926035;28;20324;-72
2022/04/17 02:57:35;;;;;;;;;;;;;;;;;;4947644;28;19943;-72
2022/04/17 03:00:01;;;;;;;;;;;;;;;;;;4941862;28;20036;-71
2022/04/17 03:07:58;;;;;;;;;;;;;;;;;;4952656;28;19972;-72
2022/04/17 03:10:24;;;;;;;;;;;;;;;;;;4945052;28;20383;-71
2022/04/17 03:12:50;;;;;;;;;;;;;;;;;;4948400;28;19960;-71
2022/04/17 03:15:16;;;;;;;;;;;;;;;;;;4947984;28;19918;-71
2022/04/17 03:17:42;;;;;;;;;;;;;;;;;;4954027;28;20511;-74
2022/04/17 03:20:08;;;;;;;;;;;;;;;;;;4947350;28;20350;-73
2022/04/17 03:22:34;;;;;;;;;;;;;;;;;;4951880;28;19914;-72
2022/04/17 03:25:00;;;;;;;;;;;;;;;;;;4945663;28;19924;-71
2022/04/17 03:27:28;;;;;;;;;;;;;;;;;;4944809;28;19930;-74
2022/04/17 03:29:54;;;;;;;;;;;;;;;;;;4956363;28;19953;-71
2022/04/17 03:32:20;;;;;;;;;;;;;;;;;;4945590;28;19945;-74
2022/04/17 03:34:46;;;;;;;;;;;;;;;;;;4949232;28;19914;-73
2022/04/17 03:37:14;;;;;;;;;;;;;;;;;;4944935;28;19914;-73
2022/04/17 03:39:40;;;;;;;;;;;;;;;;;;4948180;28;20002;-74
2022/04/17 03:42:06;;;;;;;;;;;;;;;;;;4948806;28;20280;-73
2022/04/17 03:44:33;;;;;;;;;;;;;;;;;;4948153;28;21251;-72
2022/04/17 03:46:59;;;;;;;;;;;;;;;;;;4945727;28;20320;-72
2022/04/17 03:49:25;;;;;;;;;;;;;;;;;;4934031;28;20009;-73
2022/04/17 03:51:51;;;;;;;;;;;;;;;;;;4946702;28;20369;-73
2022/04/17 03:54:17;;;;;;;;;;;;;;;;;;4944485;28;19914;-73
2022/04/17 03:56:43;;;;;;;;;;;;;;;;;;4947033;28;19918;-73
2022/04/17 03:59:09;;;;;;;;;;;;;;;;;;4948545;28;20004;-73
2022/04/17 04:01:35;;;;;;;;;;;;;;;;;;4948700;28;19921;-73
2022/04/17 04:04:01;;;;;;;;;;;;;;;;;;4947436;28;20297;-73
2022/04/17 04:06:27;;;;;;;;;;;;;;;;;;4951059;28;20017;-73
2022/04/17 04:08:53;;;;;;;;;;;;;;;;;;4946792;28;19920;-73
2022/04/17 04:11:22;;;;;;;;;;;;;;;;;;4931651;28;19924;-73
2022/04/17 04:13:48;;;;;;;;;;;;;;;;;;4942245;28;19918;-73
2022/04/17 04:16:15;;;;;;;;;;;;;;;;;;4945025;28;19920;-73
2022/04/17 04:18:40;;;;;;;;;;;;;;;;;;4950964;28;20448;-73
2022/04/17 04:21:06;;;;;;;;;;;;;;;;;;4943105;28;19925;-74
2022/04/17 04:23:33;;;;;;;;;;;;;;;;;;4945635;28;20319;-74
2022/04/17 04:25:59;;;;;;;;;;;;;;;;;;4947379;28;19922;-74
2022/04/17 04:28:36;;;;;;;;;;;;;;;;;;4953081;28;19944;-74
2022/04/17 04:31:02;;;;;;;;;;;;;;;;;;4924657;28;19925;-72
2022/04/17 04:33:31;;;;;;;;;;;;;;;;;;4946988;28;20280;-74
2022/04/17 04:35:58;;;;;;;;;;;;;;;;;;4944951;28;20456;-74
2022/04/17 04:38:24;;;;;;;;;;;;;;;;;;4951229;28;20353;-72
2022/04/17 04:40:50;;;;;;;;;;;;;;;;;;4949711;28;19914;-73
2022/04/17 04:43:16;;;;;;;;;;;;;;;;;;4944810;28;19936;-74
2022/04/17 04:51:12;;;;;;;;;;;;;;;;;;4952180;28;20033;-72
2022/04/17 04:53:38;;;;;;;;;;;;;;;;;;4957349;28;20300;-72
2022/04/17 04:56:04;;;;;;;;;;;;;;;;;;4955196;28;19918;-73
2022/04/17 04:58:30;;;;;;;;;;;;;;;;;;4952957;28;19972;-73
2022/04/17 05:00:55;;;;;;;;;;;;;;;;;;4935393;28;19976;-72
2022/04/17 05:03:21;;;;;;;;;;;;;;;;;;4942414;28;19949;-73
2022/04/17 05:05:47;;;;;;;;;;;;;;;;;;4950759;28;20036;-72
2022/04/17 05:08:13;;;;;;;;;;;;;;;;;;4946844;28;19921;-72
2022/04/17 05:10:39;;;;;;;;;;;;;;;;;;4946512;28;19964;-71
2022/04/17 05:13:05;;;;;;;;;;;;;;;;;;4952499;28;20368;-72
2022/04/17 05:15:31;;;;;;;;;;;;;;;;;;4951202;28;19914;-72
2022/04/17 05:17:57;;;;;;;;;;;;;;;;;;4949542;28;19992;-72
2022/04/17 05:20:25;;;;;;;;;;;;;;;;;;4952640;28;19925;-72
2022/04/17 05:22:56;;;;;;;;;;;;;;;;;;4952504;28;20383;-72
2022/04/17 05:25:22;;;;;;;;;;;;;;;;;;4946200;28;19924;-73
2022/04/17 05:27:48;;;;;;;;;;;;;;;;;;4950530;28;19934;-73
2022/04/17 05:30:14;;;;;;;;;;;;;;;;;;4952699;28;19914;-73
2022/04/17 05:32:40;;;;;;;;;;;;;;;;;;4951384;28;20277;-73
2022/04/17 05:35:06;;;;;;;;;;;;;;;;;;4946556;28;19914;-72
2022/04/17 05:37:32;;;;;;;;;;;;;;;;;;4948119;28;19914;-73
2022/04/17 05:39:58;;;;;;;;;;;;;;;;;;4949595;28;20375;-72
2022/04/17 05:42:24;;;;;;;;;;;;;;;;;;4941736;28;19914;-71
2022/04/17 05:44:50;;;;;;;;;;;;;;;;;;4950624;28;20604;-73
2022/04/17 05:47:16;;;;;;;;;;;;;;;;;;4948882;28;19949;-74
2022/04/17 05:49:42;;;;;;;;;;;;;;;;;;4954259;28;20036;-74
2022/04/17 05:52:08;;;;;;;;;;;;;;;;;;4946555;28;20144;-74
2022/04/17 05:54:34;;;;;;;;;;;;;;;;;;4951304;28;19910;-74
2022/04/17 05:57:00;;;;;;;;;;;;;;;;;;4945537;28;20295;-71
2022/04/17 05:59:26;;;;;;;;;;;;;;;;;;4954144;28;19914;-72
2022/04/17 06:01:52;;;;;;;;;;;;;;;;;;4948519;28;20230;-72
2022/04/17 06:04:18;;;;;;;;;;;;;;;;;;4947112;28;21860;-72
2022/04/17 06:06:44;;;;;;;;;;;;;;;;;;4951947;28;20000;-72
2022/04/17 06:09:10;;;;;;;;;;;;;;;;;;4946205;28;20443;-73
2022/04/17 06:11:36;;;;;;;;;;;;;;;;;;4947355;28;20000;-73
2022/04/17 06:14:02;;;;;;;;;;;;;;;;;;4941919;28;19922;-73
2022/04/17 06:16:28;;;;;;;;;;;;;;;;;;4949621;28;19920;-73
2022/04/17 06:18:54;;;;;;;;;;;;;;;;;;4955083;28;19913;-73
2022/04/17 06:21:23;;;;;;;;;;;;;;;;;;4941867;28;20395;-74
2022/04/17 06:23:49;;;;;;;;;;;;;;;;;;4958046;28;20272;-73
2022/04/17 06:26:15;;;;;;;;;;;;;;;;;;4941858;28;19926;-70
2022/04/17 06:28:41;;;;;;;;;;;;;;;;;;4954327;28;19965;-69
2022/04/17 06:31:07;;;;;;;;;;;;;;;;;;4942301;28;19918;-68
2022/04/17 06:33:33;;;;;;;;;;;;;;;;;;4936600;28;19914;-70
2022/04/17 06:35:59;;;;;;;;;;;;;;;;;;4934476;28;20001;-69
2022/04/17 06:38:25;;;;;;;;;;;;;;;;;;4935308;28;19937;-70
2022/04/17 06:40:52;;;;;;;;;;;;;;;;;;4940669;28;19918;-69
2022/04/17 06:43:18;;;;;;;;;;;;;;;;;;4945549;28;20262;-70
2022/04/17 06:45:44;;;;;;;;;;;;;;;;;;4949389;28;19941;-69
2022/04/17 06:48:11;;;;;;;;;;;;;;;;;;4939268;28;19957;-69
2022/04/17 06:50:36;;;;;;;;;;;;;;;;;;4950867;28;19922;-70
2022/04/17 06:53:03;;;;;;;;;;;;;;;;;;4944025;28;19914;-70
2022/04/17 06:55:29;;;;;;;;;;;;;;;;;;4929845;28;19918;-70
2022/04/17 06:57:55;;;;;;;;;;;;;;;;;;4950842;28;19924;-70
2022/04/17 07:00:22;;;;;;;;;;;;;;;;;;4947485;28;19921;-70
2022/04/17 07:02:48;;;;;;;;;;;;;;;;;;4946648;28;20338;-69
2022/04/17 07:05:14;;;;;;;;;;;;;;;;;;4941941;28;20301;-69
2022/04/17 07:07:40;;;;;;;;;;;;;;;;;;4947220;28;19921;-69
2022/04/17 07:10:06;;;;;;;;;;;;;;;;;;4939033;28;19914;-69
2022/04/17 07:12:34;;;;;;;;;;;;;;;;;;4924227;28;19920;-69
2022/04/17 07:15:00;;;;;;;;;;;;;;;;;;4943058;28;19960;-69
2022/04/17 07:17:26;;;;;;;;;;;;;;;;;;4949305;28;19922;-69
2022/04/17 07:19:53;;;;;;;;;;;;;;;;;;4952087;28;19914;-69
2022/04/17 07:22:19;;;;;;;;;;;;;;;;;;4942319;28;23307;-69
2022/04/17 07:24:51;;;;;;;;;;;;;;;;;;4947531;28;19918;-69
2022/04/17 07:27:17;;;;;;;;;;;;;;;;;;4941681;28;20173;-68
2022/04/17 07:29:43;;;;;;;;;;;;;;;;;;4945695;28;19914;-68
2022/04/17 07:32:09;;;;;;;;;;;;;;;;;;4941818;28;19914;-68
2022/04/17 07:34:35;;;;;;;;;;;;;;;;;;4946949;28;20270;-69
2022/04/17 07:37:01;;;;;;;;;;;;;;;;;;4943084;28;20495;-69
2022/04/17 07:39:27;;;;;;;;;;;;;;;;;;4945968;28;19921;-70
2022/04/17 07:41:53;;;;;;;;;;;;;;;;;;4940048;28;20366;-69
2022/04/17 07:44:19;;;;;;;;;;;;;;;;;;4944124;28;21288;-70
2022/04/17 07:46:45;;;;;;;;;;;;;;;;;;4950375;28;20173;-69
2022/04/17 07:49:11;;;;;;;;;;;;;;;;;;4936795;28;20436;-69
2022/04/17 07:51:37;;;;;;;;;;;;;;;;;;4948535;28;19914;-70
2022/04/17 07:54:03;;;;;;;;;;;;;;;;;;4926636;28;19922;-70
2022/04/17 07:56:29;;;;;;;;;;;;;;;;;;4948436;28;19914;-70
2022/04/17 07:58:55;;;;;;;;;;;;;;;;;;4943332;28;20324;-69
2022/04/17 08:01:21;;;;;;;;;;;;;;;;;;4937110;28;19976;-70
2022/04/17 08:03:47;;;;;;;;;;;;;;;;;;4940238;28;20345;-69
2022/04/17 08:06:15;;;;;;;;;;;;;;;;;;4940991;28;19921;-69
2022/04/17 08:08:41;;;;;;;;;;;;;;;;;;4941434;28;20321;-69
2022/04/17 08:11:07;;;;;;;;;;;;;;;;;;4939797;28;20552;-69
2022/04/17 08:13:33;;;;;;;;;;;;;;;;;;4937216;28;19914;-69
2022/04/17 08:15:59;;;;;;;;;;;;;;;;;;4930521;28;20365;-69
2022/04/17 08:18:25;;;;;;;;;;;;;;;;;;4933050;28;19917;-69
2022/04/17 08:20:51;;;;;;;;;;;;;;;;;;4936872;28;20036;-68
2022/04/17 08:23:17;;;;;;;;;;;;;;;;;;4950306;28;19914;-69
2022/04/17 08:25:43;;;;;;;;;;;;;;;;;;4949109;28;20798;-69
2022/04/17 08:28:09;;;;;;;;;;;;;;;;;;4942783;28;19945;-68
2022/04/17 08:30:35;;;;;;;;;;;;;;;;;;4941408;28;20296;-67
2022/04/17 08:33:01;;;;;;;;;;;;;;;;;;4937734;28;19921;-68
2022/04/17 08:35:27;;;;;;;;;;;;;;;;;;4941439;28;19921;-67
2022/04/17 08:37:54;;;;;;;;;;;;;;;;;;4944384;28;19953;-67
2022/04/17 08:40:20;;;;;;;;;;;;;;;;;;4938891;28;19918;-68
2022/04/17 08:42:46;;;;;;;;;;;;;;;;;;4946276;28;20382;-67
2022/04/17 08:45:12;;;;;;;;;;;;;;;;;;4940629;28;19992;-68
2022/04/17 08:47:38;;;;;;;;;;;;;;;;;;4938968;28;19949;-68
2022/04/17 08:50:04;;;;;;;;;;;;;;;;;;4943433;28;19918;-68
2022/04/17 08:52:30;;;;;;;;;;;;;;;;;;4941655;28;19914;-68
2022/04/17 08:54:56;;;;;;;;;;;;;;;;;;4943644;28;20377;-68
2022/04/17 08:57:22;;;;;;;;;;;;;;;;;;4942380;28;20478;-69
2022/04/17 08:59:48;;;;;;;;;;;;;;;;;;4947564;28;20004;-68
2022/04/17 09:02:16;;;;;;;;;;;;;;;;;;4938864;28;19918;-68
2022/04/17 09:04:42;;;;;;;;;;;;;;;;;;4942922;28;20447;-68
2022/04/17 09:07:08;;;;;;;;;;;;;;;;;;4939244;28;19914;-68
2022/04/17 09:09:35;;;;;;;;;;;;;;;;;;4936700;28;20288;-68
2022/04/17 09:12:01;;;;;;;;;;;;;;;;;;4934966;28;19956;-68
2022/04/17 09:14:27;;;;;;;;;;;;;;;;;;4947156;28;19920;-68
2022/04/17 09:16:53;;;;;;;;;;;;;;;;;;4945631;28;19913;-68
2022/04/17 09:19:19;;;;;;;;;;;;;;;;;;4941146;28;21938;-68
2022/04/17 09:21:45;;;;;;;;;;;;;;;;;;4943200;28;19929;-69
2022/04/17 09:24:11;;;;;;;;;;;;;;;;;;4931756;28;20331;-69
2022/04/17 09:26:37;;;;;;;;;;;;;;;;;;4934236;28;19961;-69
2022/04/17 09:29:03;;;;;;;;;;;;;;;;;;4929985;28;19919;-68
2022/04/17 09:31:29;;;;;;;;;;;;;;;;;;4938862;28;20337;-69
2022/04/17 09:33:55;;;;;;;;;;;;;;;;;;4943299;28;19922;-69
2022/04/17 09:36:21;;;;;;;;;;;;;;;;;;4937871;28;20336;-69
2022/04/17 09:38:47;;;;;;;;;;;;;;;;;;4940897;28;19918;-69
2022/04/17 09:41:13;;;;;;;;;;;;;;;;;;4936960;28;20728;-69
2022/04/17 09:43:39;;;;;;;;;;;;;;;;;;4936990;28;20308;-69
2022/04/17 09:46:05;;;;;;;;;;;;;;;;;;4934968;28;19917;-69
2022/04/17 09:48:31;;;;;;;;;;;;;;;;;;4946562;28;20182;-69
2022/04/17 09:50:57;;;;;;;;;;;;;;;;;;4946220;28;20100;-70
2022/04/17 09:53:23;;;;;;;;;;;;;;;;;;4933188;28;20478;-70
2022/04/17 09:55:49;;;;;;;;;;;;;;;;;;4940025;28;19973;-69
2022/04/17 09:58:15;;;;;;;;;;;;;;;;;;4939171;28;20440;-70
2022/04/17 10:00:42;;;;;;;;;;;;;;;;;;4939202;28;19914;-69
2022/04/17 10:03:09;;;;;;;;;;;;;;;;;;4934453;28;19914;-70
2022/04/17 10:05:35;;;;;;;;;;;;;;;;;;4941845;28;19918;-70
2022/04/17 10:08:01;;;;;;;;;;;;;;;;;;4943549;28;20672;-70
2022/04/17 10:10:27;;;;;;;;;;;;;;;;;;4942479;28;21040;-70
2022/04/17 10:12:54;;;;;;;;;;;;;;;;;;4941399;28;19961;-70
2022/04/17 10:15:20;;;;;;;;;;;;;;;;;;4935202;28;19924;-69
2022/04/17 10:17:46;;;;;;;;;;;;;;;;;;4940114;28;20012;-70
2022/04/17 10:20:12;;;;;;;;;;;;;;;;;;4937293;28;19918;-68
2022/04/17 10:22:38;;;;;;;;;;;;;;;;;;4935049;28;19914;-69
2022/04/17 10:25:04;;;;;;;;;;;;;;;;;;4921304;28;19922;-69
2022/04/17 10:27:30;;;;;;;;;;;;;;;;;;4916126;28;21027;-70
2022/04/17 10:29:56;;;;;;;;;;;;;;;;;;4953007;28;19914;-69
2022/04/17 10:32:22;;;;;;;;;;;;;;;;;;4931445;28;19949;-70
2022/04/17 10:34:51;;;;;;;;;;;;;;;;;;4952682;28;20041;-70
2022/04/17 10:37:17;;;;;;;;;;;;;;;;;;4949666;28;20000;-70
2022/04/17 10:39:43;;;;;;;;;;;;;;;;;;4951254;28;19918;-70
2022/04/17 10:42:09;;;;;;;;;;;;;;;;;;4951138;28;20255;-70
2022/04/17 10:44:41;;;;;;;;;;;;;;;;;;4956245;28;20020;-71
2022/04/17 10:47:08;;;;;;;;;;;;;;;;;;4953269;28;19914;-72
2022/04/17 10:49:34;;;;;;;;;;;;;;;;;;4955060;28;19913;-70
2022/04/17 10:52:00;;;;;;;;;;;;;;;;;;4952070;28;20264;-72
2022/04/17 10:54:26;;;;;;;;;;;;;;;;;;4950907;28;19918;-71
2022/04/17 10:56:52;;;;;;;;;;;;;;;;;;4954056;28;20316;-71
2022/04/17 10:59:18;;;;;;;;;;;;;;;;;;4951679;28;19914;-71
2022/04/17 11:01:44;;;;;;;;;;;;;;;;;;4923922;28;20676;-71
2022/04/17 11:04:13;;;;;;;;;;;;;;;;;;4898991;28;20716;-72
2022/04/17 11:06:39;;;;;;;;;;;;;;;;;;4905453;28;19921;-72
2022/04/17 11:09:06;;;;;;;;;;;;;;;;;;4898609;28;20360;-72
2022/04/17 11:11:31;;;;;;;;;;;;;;;;;;4903146;28;19918;-72
2022/04/17 11:13:57;;;;;;;;;;;;;;;;;;4884810;28;19921;-73
2022/04/17 11:16:27;;;;;;;;;;;;;;;;;;4901498;28;19949;-73
2022/04/17 11:18:53;;;;;;;;;;;;;;;;;;4903576;28;20340;-73
2022/04/17 11:21:19;;;;;;;;;;;;;;;;;;4892448;28;19924;-71
2022/04/17 11:23:45;;;;;;;;;;;;;;;;;;4901525;28;20223;-70
2022/04/17 11:26:11;;;;;;;;;;;;;;;;;;4894919;28;20471;-71
2022/04/17 11:28:37;;;;;;;;;;;;;;;;;;4896527;28;19918;-71
2022/04/17 11:31:03;;;;;;;;;;;;;;;;;;4881447;28;19914;-71
2022/04/17 11:33:29;;;;;;;;;;;;;;;;;;4901312;28;20673;-72
2022/04/17 11:35:56;;;;;;;;;;;;;;;;;;4905962;28;20367;-72
2022/04/17 11:38:22;;;;;;;;;;;;;;;;;;4905107;28;19968;-71
2022/04/17 11:40:48;;;;;;;;;;;;;;;;;;4950380;28;19915;-72
2022/04/17 11:43:17;;;;;;;;;;;;;;;;;;4949816;28;20677;-71
2022/04/17 11:45:43;;;;;;;;;;;;;;;;;;4953334;28;20298;-72
2022/04/17 11:48:09;;;;;;;;;;;;;;;;;;4950427;28;19921;-71
2022/04/17 11:50:35;;;;;;;;;;;;;;;;;;4950213;28;19921;-71
2022/04/17 11:53:01;;;;;;;;;;;;;;;;;;4952498;28;19914;-71
2022/04/17 11:55:28;;;;;;;;;;;;;;;;;;4955693;28;20285;-72
2022/04/17 11:57:55;;;;;;;;;;;;;;;;;;4955122;28;19918;-74
2022/04/17 12:00:21;;;;;;;;;;;;;;;;;;4952266;28;20300;-71
2022/04/17 12:02:47;;;;;;;;;;;;;;;;;;4955495;28;20656;-72
2022/04/17 12:05:13;;;;;;;;;;;;;;;;;;4949546;28;20383;-72
2022/04/17 12:07:39;;;;;;;;;;;;;;;;;;4955633;28;20364;-72
2022/04/17 12:10:05;;;;;;;;;;;;;;;;;;4950048;28;19973;-72
2022/04/17 12:12:31;;;;;;;;;;;;;;;;;;4952411;28;19921;-72
2022/04/17 12:14:58;;;;;;;;;;;;;;;;;;4934397;28;20696;-72
2022/04/17 12:17:24;;;;;;;;;;;;;;;;;;4948786;28;20383;-72
2022/04/17 12:19:50;;;;;;;;;;;;;;;;;;4948716;28;19984;-72
2022/04/17 12:22:19;;;;;;;;;;;;;;;;;;4948990;28;19918;-72
2022/04/17 12:24:45;;;;;;;;;;;;;;;;;;4952170;28;19925;-71
2022/04/17 12:27:11;;;;;;;;;;;;;;;;;;4948228;28;20418;-72
2022/04/17 12:29:38;;;;;;;;;;;;;;;;;;4951628;28;19921;-72
2022/04/17 12:32:05;;;;;;;;;;;;;;;;;;4948272;28;19918;-72
2022/04/17 12:34:31;;;;;;;;;;;;;;;;;;4933106;28;20020;-72
2022/04/17 12:36:59;;;;;;;;;;;;;;;;;;4951702;28;19914;-71
2022/04/17 12:39:25;;;;;;;;;;;;;;;;;;4951663;28;20163;-72
2022/04/17 12:41:54;;;;;;;;;;;;;;;;;;4951371;28;20356;-71
2022/04/17 12:44:19;;;;;;;;;;;;;;;;;;4948186;28;20330;-72
2022/04/17 12:46:46;;;;;;;;;;;;;;;;;;4951059;28;20472;-72
2022/04/17 12:49:12;;;;;;;;;;;;;;;;;;4948001;28;19918;-72
2022/04/17 12:51:38;;;;;;;;;;;;;;;;;;4951871;28;19920;-73
2022/04/17 12:54:05;;;;;;;;;;;;;;;;;;4948444;28;19929;-71
2022/04/17 12:56:31;;;;;;;;;;;;;;;;;;4951875;28;19966;-71
2022/04/17 12:58:57;;;;;;;;;;;;;;;;;;4951048;28;19921;-71
2022/04/17 13:01:23;;;;;;;;;;;;;;;;;;4942877;28;20245;-71
2022/04/17 13:03:49;;;;;;;;;;;;;;;;;;4951910;28;19965;-71
2022/04/17 13:06:15;;;;;;;;;;;;;;;;;;4948118;28;19968;-71
2022/04/17 13:08:41;;;;;;;;;;;;;;;;;;4935579;28;19918;-71
2022/04/17 13:11:07;;;;;;;;;;;;;;;;;;4951954;28;19914;-71
2022/04/17 13:13:33;;;;;;;;;;;;;;;;;;4952730;28;20402;-71
2022/04/17 13:15:59;;;;;;;;;;;;;;;;;;4951468;28;19938;-71
2022/04/17 13:18:25;;;;;;;;;;;;;;;;;;4937268;28;20280;-72
2022/04/17 13:20:51;;;;;;;;;;;;;;;;;;4955269;28;19921;-71
2022/04/17 13:23:17;;;;;;;;;;;;;;;;;;4952033;28;19913;-71
2022/04/17 13:25:43;;;;;;;;;;;;;;;;;;4952804;28;19922;-72
2022/04/17 13:28:11;;;;;;;;;;;;;;;;;;4949377;28;20475;-71
2022/04/17 13:30:37;;;;;;;;;;;;;;;;;;4949614;28;19921;-70
2022/04/17 13:33:03;;;;;;;;;;;;;;;;;;4946757;28;19914;-71
2022/04/17 13:35:29;;;;;;;;;;;;;;;;;;4950802;28;20009;-71
2022/04/17 13:38:13;;;;;;;;;;;;;;;;;;4952619;28;19969;-73
2022/04/17 13:40:39;;;;;;;;;;;;;;;;;;4935717;28;19936;-71
2022/04/17 13:43:05;;;;;;;;;;;;;;;;;;4951334;28;20365;-71
2022/04/17 13:45:31;;;;;;;;;;;;;;;;;;4945121;28;19949;-70
2022/04/17 13:47:57;;;;;;;;;;;;;;;;;;4940768;28;20552;-70
2022/04/17 13:50:24;;;;;;;;;;;;;;;;;;4939438;28;20341;-71
2022/04/17 13:52:50;;;;;;;;;;;;;;;;;;4944031;28;19941;-71
2022/04/17 13:55:16;;;;;;;;;;;;;;;;;;4939047;28;20064;-71
2022/04/17 13:57:45;;;;;;;;;;;;;;;;;;4942431;28;20464;-71
2022/04/17 14:00:11;;;;;;;;;;;;;;;;;;4940610;28;19922;-70
2022/04/17 14:02:37;;;;;;;;;;;;;;;;;;4943769;28;20250;-72
2022/04/17 14:05:04;;;;;;;;;;;;;;;;;;4942573;28;19999;-72
2022/04/17 14:07:30;;;;;;;;;;;;;;;;;;4937589;28;19944;-72
2022/04/17 14:09:56;;;;;;;;;;;;;;;;;;4922454;28;19941;-72
2022/04/17 14:12:24;;;;;;;;;;;;;;;;;;4935146;28;19925;-72
2022/04/17 14:14:55;;;;;;;;;;;;;;;;;;4942881;28;19925;-72
2022/04/17 14:17:21;;;;;;;;;;;;;;;;;;4938721;28;19913;-71
2022/04/17 14:19:47;;;;;;;;;;;;;;;;;;4942009;28;19918;-72
2022/04/17 14:22:13;;;;;;;;;;;;;;;;;;4937990;28;19918;-71
2022/04/17 14:24:40;;;;;;;;;;;;;;;;;;4938492;28;20436;-72
2022/04/17 14:27:06;;;;;;;;;;;;;;;;;;4938659;28;19960;-72
2022/04/17 14:29:32;;;;;;;;;;;;;;;;;;4938738;28;19945;-71
2022/04/17 14:31:58;;;;;;;;;;;;;;;;;;4940265;28;20351;-71
2022/04/17 14:34:24;;;;;;;;;;;;;;;;;;4922486;28;19956;-71
2022/04/17 14:36:50;;;;;;;;;;;;;;;;;;4940441;28;20001;-72
2022/04/17 14:39:16;;;;;;;;;;;;;;;;;;4933398;28;19920;-71
2022/04/17 14:41:44;;;;;;;;;;;;;;;;;;4938047;28;19925;-71
2022/04/17 14:44:11;;;;;;;;;;;;;;;;;;4938532;28;19922;-72
2022/04/17 14:46:37;;;;;;;;;;;;;;;;;;4942795;28;19918;-71
2022/04/17 14:49:03;;;;;;;;;;;;;;;;;;4935726;28;20340;-70
2022/04/17 14:51:29;;;;;;;;;;;;;;;;;;4941872;28;19945;-71
2022/04/17 14:53:55;;;;;;;;;;;;;;;;;;4942228;28;19914;-70
2022/04/17 14:56:21;;;;;;;;;;;;;;;;;;4938766;28;20300;-70
2022/04/17 14:58:47;;;;;;;;;;;;;;;;;;4939057;28;19917;-70
2022/04/17 15:01:13;;;;;;;;;;;;;;;;;;4938639;28;19984;-70
2022/04/17 15:03:41;;;;;;;;;;;;;;;;;;4942862;28;19960;-71
2022/04/17 15:06:07;;;;;;;;;;;;;;;;;;4939776;28;19918;-70
2022/04/17 15:08:33;;;;;;;;;;;;;;;;;;4942286;28;19940;-71
2022/04/17 15:10:59;;;;;;;;;;;;;;;;;;4940605;28;20530;-71
2022/04/17 15:13:25;;;;;;;;;;;;;;;;;;4939565;28;20221;-70
2022/04/17 15:15:51;;;;;;;;;;;;;;;;;;4940303;28;19921;-71
2022/04/17 15:18:17;;;;;;;;;;;;;;;;;;4934502;28;19967;-71
2022/04/17 15:20:43;;;;;;;;;;;;;;;;;;4925987;28;19956;-71
2022/04/17 15:23:10;;;;;;;;;;;;;;;;;;4938477;28;20435;-70
2022/04/17 15:25:37;;;;;;;;;;;;;;;;;;4939531;28;20004;-72
2022/04/17 15:28:03;;;;;;;;;;;;;;;;;;4936225;28;20616;-71
2022/04/17 15:30:29;;;;;;;;;;;;;;;;;;4942567;28;20146;-71
2022/04/17 15:32:55;;;;;;;;;;;;;;;;;;4939730;28;19913;-71
2022/04/17 15:35:21;;;;;;;;;;;;;;;;;;4939327;28;19914;-71
2022/04/17 15:37:47;;;;;;;;;;;;;;;;;;4943458;28;20057;-71
2022/04/17 15:40:13;;;;;;;;;;;;;;;;;;4919863;28;20464;-71
2022/04/17 15:42:39;;;;;;;;;;;;;;;;;;4940114;28;19914;-70
2022/04/17 15:47:59;;;;;;;;;;;;;;;;;;4938150;28;20809;-70
2022/04/17 15:50:25;;;;;;;;;;;;;;;;;;4940022;28;19914;-72
2022/04/17 15:52:51;;;;;;;;;;;;;;;;;;4942356;28;20221;-72
2022/04/17 15:55:17;;;;;;;;;;;;;;;;;;4938294;28;19953;-71
2022/04/17 15:57:43;;;;;;;;;;;;;;;;;;4942055;28;20013;-71
2022/04/17 16:00:09;;;;;;;;;;;;;;;;;;4936374;28;19914;-72
2022/04/17 16:02:35;;;;;;;;;;;;;;;;;;4941416;28;19914;-70
2022/04/17 16:05:01;;;;;;;;;;;;;;;;;;4936749;28;20333;-71
2022/04/17 16:07:27;;;;;;;;;;;;;;;;;;4941643;28;20115;-73
2022/04/17 16:09:53;;;;;;;;;;;;;;;;;;4938210;28;19914;-71
2022/04/17 16:12:19;;;;;;;;;;;;;;;;;;4936559;28;19925;-71
2022/04/17 16:14:45;;;;;;;;;;;;;;;;;;4938825;28;20466;-72
2022/04/17 16:17:11;;;;;;;;;;;;;;;;;;4934333;28;20575;-71
2022/04/17 16:19:37;;;;;;;;;;;;;;;;;;4943646;28;19941;-71
2022/04/17 16:22:03;;;;;;;;;;;;;;;;;;4929646;28;20459;-71
2022/04/17 16:24:29;;;;;;;;;;;;;;;;;;4922975;28;19914;-71
2022/04/17 16:26:55;;;;;;;;;;;;;;;;;;4936324;28;19969;-72
2022/04/17 16:29:21;;;;;;;;;;;;;;;;;;4930597;28;20908;-71
2022/04/17 16:31:47;;;;;;;;;;;;;;;;;;4934980;28;19922;-71
2022/04/17 16:34:13;;;;;;;;;;;;;;;;;;4929020;28;19914;-72
2022/04/17 16:36:39;;;;;;;;;;;;;;;;;;4920315;28;19918;-72
2022/04/17 16:39:05;;;;;;;;;;;;;;;;;;4924988;28;19914;-72
2022/04/17 16:41:31;;;;;;;;;;;;;;;;;;4932366;28;19916;-72
2022/04/17 16:43:57;;;;;;;;;;;;;;;;;;4925213;28;20337;-71
2022/04/17 16:46:24;;;;;;;;;;;;;;;;;;4932757;28;19942;-72
2022/04/17 16:48:50;;;;;;;;;;;;;;;;;;4939063;28;19964;-71
2022/04/17 16:51:16;;;;;;;;;;;;;;;;;;4928267;28;20338;-70
2022/04/17 16:53:42;;;;;;;;;;;;;;;;;;4902125;28;20428;-71
2022/04/17 16:56:08;;;;;;;;;;;;;;;;;;4936364;28;19960;-71